Alburtis, Pennsylvania
Current Conditions -  °F | °C
As of 10:15 PM on Wednesday 22 Oct 2014 (Local Time) from KXLL Reporting Station
Overcast Overcast  
Wind Chill: 54°   Ceiling: 2500
Heat Index: 54°   Visibility: 10mi
Dew Point: 46°   Wind: 15mph
Humidity: 77%   Direction: 330°NNW
Pressure: 29.88"   Gusts: 22mph
Location:  40.51°N, 75.6°W
Report Text: KXLL 230215Z AUTO 33013G19KT 10SM BKN025 BKN030 OVC044 12/08 A2988 RMK AO2
Loading
Personal Weather Stations






























Interactive Weather Map New forecast layout! Learn more

10-Day Weather Forecast

Advertisements
Track Severe Weather on mobile